createdAt,value
2023-03-01T00:01:33.820Z,101707.05
2023-03-01T00:05:37.233Z,101705.77
2023-03-01T00:09:41.209Z,101704.84
2023-03-01T00:13:45.524Z,101707.82
2023-03-01T00:17:48.533Z,101709.98
2023-03-01T00:21:51.643Z,101708.34
2023-03-01T00:25:55.662Z,101702.42
2023-03-01T00:29:59.062Z,101703.25
2023-03-01T00:34:06.511Z,101701.08
2023-03-01T00:38:10.009Z,101697.77
2023-03-01T00:42:13.280Z,101691.61
2023-03-01T00:46:20.220Z,101680.75
2023-03-01T00:50:24.629Z,101672.09
2023-03-01T00:54:27.662Z,101671.39
2023-03-01T00:58:30.919Z,101674.80
2023-03-01T01:02:35.360Z,101667.67
2023-03-01T01:06:43.590Z,101667.68
2023-03-01T01:10:47.662Z,101669.92
2023-03-01T01:14:51.046Z,101666.55
2023-03-01T01:18:54.539Z,101656.77
2023-03-01T01:22:59.047Z,101641.48
2023-03-01T01:27:02.794Z,101636.88
2023-03-01T01:31:07.140Z,101641.29
2023-03-01T01:35:10.352Z,101636.87
2023-03-01T01:39:14.277Z,101637.66
2023-03-01T01:43:37.231Z,101638.52
2023-03-01T01:47:42.539Z,101633.60
2023-03-01T01:51:49.360Z,101629.16
2023-03-01T01:55:59.360Z,101621.52
2023-03-01T02:00:07.941Z,101619.80
2023-03-01T02:04:12.821Z,101616.66
2023-03-01T02:08:19.562Z,101612.77
2023-03-01T02:12:25.546Z,101611.90
2023-03-01T02:16:30.559Z,101607.58
2023-03-01T02:20:40.926Z,101602.89
2023-03-01T02:24:55.356Z,101603.26
2023-03-01T02:28:58.678Z,101607.36
2023-03-01T02:33:05.593Z,101612.06
2023-03-01T02:37:15.963Z,101613.47
2023-03-01T02:41:21.852Z,101607.00
2023-03-01T02:45:26.761Z,101608.34
2023-03-01T02:49:35.806Z,101608.82
2023-03-01T02:53:51.368Z,101607.07
2023-03-01T02:57:57.371Z,101610.53
2023-03-01T03:02:02.422Z,101617.09
2023-03-01T03:06:06.115Z,101618.73
2023-03-01T03:10:20.574Z,101623.57
2023-03-01T03:14:24.597Z,101616.35
2023-03-01T03:18:27.637Z,101615.19
2023-03-01T03:22:32.113Z,101609.80
2023-03-01T03:26:35.534Z,101608.23
2023-03-01T03:30:41.283Z,101610.68
2023-03-01T03:34:45.321Z,101608.14
2023-03-01T03:38:48.758Z,101603.84
2023-03-01T03:42:52.094Z,101598.63
2023-03-01T03:46:55.870Z,101594.76
2023-03-01T03:51:00.666Z,101597.04
2023-03-01T03:55:04.531Z,101595.97
2023-03-01T03:59:08.043Z,101593.88
2023-03-01T04:03:13.214Z,101595.59
2023-03-01T04:07:17.733Z,101591.17
2023-03-01T04:11:29.551Z,101588.35
2023-03-01T04:15:33.978Z,101583.92
2023-03-01T04:19:38.102Z,101577.96
2023-03-01T04:23:44.761Z,101581.20
2023-03-01T04:27:48.071Z,101581.82
2023-03-01T04:31:51.312Z,101577.48
2023-03-01T04:35:54.703Z,101575.42
2023-03-01T04:39:58.482Z,101574.88
2023-03-01T04:44:01.770Z,101575.91
2023-03-01T04:48:06.119Z,101575.41
2023-03-01T04:52:10.473Z,101577.60
2023-03-01T04:56:18.972Z,101579.80
2023-03-01T05:00:23.316Z,101575.96
2023-03-01T05:04:27.045Z,101578.00
2023-03-01T05:08:30.174Z,101580.76
2023-03-01T05:12:33.470Z,101582.15
2023-03-01T05:16:38.184Z,101588.73
2023-03-01T05:20:42.157Z,101587.10
2023-03-01T05:24:45.303Z,101583.45
2023-03-01T05:28:49.497Z,101587.33
2023-03-01T05:32:56.979Z,101584.92
2023-03-01T05:37:00.554Z,101591.75
2023-03-01T05:41:04.323Z,101585.98
2023-03-01T05:45:10.771Z,101589.46
2023-03-01T05:49:15.364Z,101584.29
2023-03-01T05:53:22.282Z,101584.65
2023-03-01T05:57:25.434Z,101585.54
2023-03-01T06:01:29.058Z,101589.75
2023-03-01T06:05:33.201Z,101590.85
2023-03-01T06:09:36.537Z,101592.23
2023-03-01T06:13:39.527Z,101594.73
2023-03-01T06:17:44.589Z,101593.19
2023-03-01T06:21:48.056Z,101593.38
2023-03-01T06:25:51.588Z,101595.48
2023-03-01T06:29:55.026Z,101589.98
2023-03-01T06:33:59.341Z,101591.80
2023-03-01T06:38:04.137Z,101589.41
2023-03-01T06:42:09.471Z,101591.44
2023-03-01T06:46:12.501Z,101588.00
2023-03-01T06:50:17.267Z,101582.47
2023-03-01T06:54:23.306Z,101570.36
2023-03-01T06:58:27.267Z,101571.84
2023-03-01T07:02:30.704Z,101564.20
2023-03-01T07:06:34.580Z,101563.35
2023-03-01T07:10:37.707Z,101563.36
2023-03-01T07:14:41.142Z,101563.84
2023-03-01T07:18:45.008Z,101572.23
2023-03-01T07:22:49.365Z,101567.27
2023-03-01T07:26:53.263Z,101567.36
2023-03-01T07:30:56.347Z,101578.92
2023-03-01T07:35:00.504Z,101582.75
2023-03-01T07:39:04.436Z,101581.35
2023-03-01T07:43:08.798Z,101579.31
2023-03-01T07:47:12.360Z,101574.05
2023-03-01T07:51:15.899Z,101565.14
2023-03-01T07:55:19.019Z,101562.70
2023-03-01T07:59:22.497Z,101551.07
2023-03-01T08:03:25.888Z,101539.70
2023-03-01T08:07:29.889Z,101537.64
2023-03-01T08:11:33.745Z,101533.36
2023-03-01T08:15:37.676Z,101532.75
2023-03-01T08:19:41.128Z,101530.55
2023-03-01T08:23:44.838Z,101532.30
2023-03-01T08:27:48.294Z,101530.98
2023-03-01T08:31:52.743Z,101525.71
2023-03-01T08:36:04.677Z,101522.46
2023-03-01T08:40:11.081Z,101516.65
2023-03-01T08:44:17.816Z,101525.73
2023-03-01T08:48:21.428Z,101528.85
2023-03-01T08:52:25.619Z,101530.09
2023-03-01T08:56:29.107Z,101532.91
2023-03-01T09:00:35.689Z,101537.91
2023-03-01T09:04:39.307Z,101537.03
2023-03-01T09:08:45.060Z,101536.13
2023-03-01T09:12:48.770Z,101535.08
2023-03-01T09:16:52.507Z,101536.25
2023-03-01T09:21:08.197Z,101541.05
2023-03-01T09:25:11.287Z,101538.45
2023-03-01T09:29:15.826Z,101530.39
2023-03-01T09:33:19.981Z,101528.70
2023-03-01T09:37:23.651Z,101525.77
2023-03-01T09:41:51.166Z,101523.91
2023-03-01T09:45:57.083Z,101524.65
2023-03-01T09:50:15.810Z,101525.99
2023-03-01T09:54:18.889Z,101522.92
2023-03-01T09:58:59.279Z,101518.86
2023-03-01T10:03:26.810Z,101521.61
2023-03-01T10:08:03.837Z,101516.05
2023-03-01T10:12:18.113Z,101520.02
2023-03-01T10:16:35.328Z,101514.86
2023-03-01T10:20:48.192Z,101508.75
2023-03-01T10:24:54.177Z,101499.05
2023-03-01T10:29:09.202Z,101491.79
2023-03-01T10:33:23.324Z,101487.49
2023-03-01T10:37:28.507Z,101479.69
2023-03-01T10:41:32.226Z,101478.29
2023-03-01T10:45:39.961Z,101473.41
2023-03-01T10:49:55.203Z,101469.77
2023-03-01T10:53:58.326Z,101466.94
2023-03-01T10:58:09.124Z,101465.27
2023-03-01T11:02:31.368Z,101463.66
2023-03-01T11:06:36.648Z,101456.78
2023-03-01T11:10:39.978Z,101451.88
2023-03-01T11:14:53.726Z,101450.44
2023-03-01T11:19:01.057Z,101446.95
2023-03-01T11:23:10.144Z,101445.41
2023-03-01T11:27:27.771Z,101437.63
2023-03-01T11:31:32.833Z,101442.78
2023-03-01T11:35:43.891Z,101442.45
2023-03-01T11:39:53.336Z,101433.38
2023-03-01T11:44:11.778Z,101426.64
2023-03-01T11:48:48.402Z,101426.10
2023-03-01T11:53:10.949Z,101426.83
2023-03-01T11:57:52.135Z,101430.51
2023-03-01T12:01:58.434Z,101418.86
2023-03-01T12:06:24.982Z,101414.90
2023-03-01T12:10:47.686Z,101406.23
2023-03-01T12:15:21.987Z,101408.52
2023-03-01T12:20:04.151Z,101399.48
2023-03-01T12:24:45.448Z,101400.95
2023-03-01T12:29:15.838Z,101393.81
2023-03-01T12:33:37.725Z,101389.84
2023-03-01T12:37:46.436Z,101387.06
2023-03-01T12:41:55.610Z,101386.58
2023-03-01T12:46:02.339Z,101377.71
2023-03-01T12:50:41.526Z,101370.98
2023-03-01T12:54:47.070Z,101362.83
2023-03-01T12:59:03.968Z,101347.09
2023-03-01T13:03:34.131Z,101346.73
2023-03-01T13:07:56.206Z,101342.27
2023-03-01T13:11:59.336Z,101336.80
2023-03-01T13:16:31.644Z,101335.41
2023-03-01T13:20:43.865Z,101332.20
2023-03-01T13:24:46.934Z,101329.08
2023-03-01T13:28:53.349Z,101333.77
2023-03-01T13:33:16.306Z,101335.52
2023-03-01T13:37:23.683Z,101328.85
2023-03-01T13:41:44.845Z,101327.14
2023-03-01T13:45:48.451Z,101327.51
2023-03-01T13:50:04.390Z,101321.15
2023-03-01T13:54:13.860Z,101312.55
2023-03-01T13:58:22.636Z,101302.16
2023-03-01T14:02:25.712Z,101292.04
2023-03-01T14:06:36.685Z,101284.67
2023-03-01T14:10:55.974Z,101283.42
2023-03-01T14:15:17.191Z,101281.33
2023-03-01T14:19:34.610Z,101279.13
2023-03-01T14:23:43.245Z,101272.71
2023-03-01T14:27:55.345Z,101275.36
2023-03-01T14:32:19.366Z,101268.99
2023-03-01T14:36:29.357Z,101265.88
2023-03-01T14:40:38.058Z,101262.54
2023-03-01T14:44:44.567Z,101250.05
2023-03-01T14:48:49.821Z,101239.70
2023-03-01T14:52:58.001Z,101233.58
2023-03-01T14:57:02.483Z,101232.77
2023-03-01T15:01:06.346Z,101229.23
2023-03-01T15:05:10.526Z,101227.14
2023-03-01T15:09:19.075Z,101229.66
2023-03-01T15:13:27.248Z,101234.33
2023-03-01T15:17:35.585Z,101239.62
2023-03-01T15:21:40.058Z,101238.37
2023-03-01T15:25:46.076Z,101233.52
2023-03-01T15:29:53.636Z,101235.94
2023-03-01T15:34:33.570Z,101238.92
2023-03-01T15:38:43.847Z,101233.69
2023-03-01T15:42:47.118Z,101233.36
2023-03-01T15:46:50.359Z,101232.29
2023-03-01T15:50:59.188Z,101231.57
2023-03-01T15:55:08.122Z,101237.57
2023-03-01T15:59:15.830Z,101235.83
2023-03-01T16:03:22.530Z,101236.79
2023-03-01T16:07:27.962Z,101238.20
2023-03-01T16:11:32.910Z,101236.18
2023-03-01T16:15:36.840Z,101237.84
2023-03-01T16:19:40.104Z,101239.13
2023-03-01T16:23:45.054Z,101235.95
2023-03-01T16:27:50.604Z,101233.98
2023-03-01T16:31:54.185Z,101235.21
2023-03-01T16:35:57.802Z,101244.39
2023-03-01T16:40:01.723Z,101250.27
2023-03-01T16:44:05.924Z,101257.31
2023-03-01T16:48:09.736Z,101261.25
2023-03-01T16:52:13.014Z,101264.91
2023-03-01T16:56:17.639Z,101257.70
2023-03-01T17:00:21.936Z,101263.05
2023-03-01T17:04:25.484Z,101270.27
2023-03-01T17:08:28.855Z,101278.84
2023-03-01T17:12:33.108Z,101280.88
2023-03-01T17:16:36.973Z,101286.89
2023-03-01T17:20:40.082Z,101290.38
2023-03-01T17:24:44.482Z,101289.52
2023-03-01T17:28:51.931Z,101292.06
2023-03-01T17:32:56.362Z,101287.47
2023-03-01T17:36:59.844Z,101289.67
2023-03-01T17:41:03.863Z,101287.95
2023-03-01T17:45:08.109Z,101286.06
2023-03-01T17:49:11.260Z,101283.73
2023-03-01T17:53:14.755Z,101286.01
2023-03-01T17:57:17.746Z,101289.69
2023-03-01T18:01:22.142Z,101291.16
2023-03-01T18:05:25.459Z,101290.38
2023-03-01T18:09:28.595Z,101295.34
2023-03-01T18:13:31.683Z,101290.60
2023-03-01T18:17:34.850Z,101290.81
2023-03-01T18:21:37.953Z,101288.59
2023-03-01T18:25:41.308Z,101293.76
2023-03-01T18:29:44.938Z,101289.39
2023-03-01T18:33:49.158Z,101292.05
2023-03-01T18:37:52.262Z,101296.08
2023-03-01T18:41:55.497Z,101291.10
2023-03-01T18:46:00.144Z,101287.42
2023-03-01T18:50:03.507Z,101287.27
2023-03-01T18:54:07.236Z,101282.02
2023-03-01T18:58:11.599Z,101274.21
2023-03-01T19:02:16.055Z,101265.00
2023-03-01T19:06:20.260Z,101262.66
2023-03-01T19:10:24.660Z,101264.09
2023-03-01T19:14:28.170Z,101259.14
2023-03-01T19:18:31.494Z,101260.58
2023-03-01T19:22:34.607Z,101262.92
2023-03-01T19:26:37.787Z,101266.55
2023-03-01T19:30:40.907Z,101263.27
2023-03-01T19:34:44.154Z,101260.59
2023-03-01T19:38:47.596Z,101260.23
2023-03-01T19:42:51.097Z,101260.31
2023-03-01T19:46:57.408Z,101262.46
2023-03-01T19:51:00.923Z,101266.41
2023-03-01T19:55:09.832Z,101270.98
2023-03-01T19:59:13.934Z,101270.14
2023-03-01T20:03:17.052Z,101267.29
2023-03-01T20:07:20.471Z,101267.90
2023-03-01T20:11:23.721Z,101274.45
2023-03-01T20:15:26.661Z,101277.36
2023-03-01T20:19:29.959Z,101277.05
2023-03-01T20:23:33.092Z,101276.98
2023-03-01T20:27:36.255Z,101277.21
2023-03-01T20:31:41.563Z,101276.27
2023-03-01T20:35:44.950Z,101269.70
2023-03-01T20:39:48.176Z,101266.91
2023-03-01T20:43:56.370Z,101264.80
2023-03-01T20:47:59.543Z,101269.02
2023-03-01T20:52:02.577Z,101263.91
2023-03-01T20:56:11.867Z,101269.62
2023-03-01T21:00:15.205Z,101267.77
2023-03-01T21:04:18.629Z,101267.06
2023-03-01T21:08:21.987Z,101271.13
2023-03-01T21:12:25.054Z,101267.52
2023-03-01T21:16:28.955Z,101258.46
2023-03-01T21:20:32.098Z,101253.52
2023-03-01T21:24:35.732Z,101248.45
2023-03-01T21:28:40.523Z,101240.98
2023-03-01T21:32:43.824Z,101239.58
2023-03-01T21:36:46.784Z,101245.06
2023-03-01T21:40:50.113Z,101246.10
2023-03-01T21:44:53.678Z,101241.29
2023-03-01T21:48:57.556Z,101237.00
2023-03-01T21:53:05.387Z,101235.98
2023-03-01T21:57:09.778Z,101235.36
2023-03-01T22:01:15.667Z,101233.20
2023-03-01T22:05:18.808Z,101233.10
2023-03-01T22:09:23.632Z,101228.75
2023-03-01T22:13:27.209Z,101233.71
2023-03-01T22:17:30.718Z,101238.42
2023-03-01T22:21:34.388Z,101243.13
2023-03-01T22:25:42.650Z,101243.00
2023-03-01T22:29:46.168Z,101246.61
2023-03-01T22:33:49.803Z,101238.78
2023-03-01T22:37:53.187Z,101237.81
2023-03-01T22:41:56.914Z,101237.10
2023-03-01T22:46:01.089Z,101234.66
2023-03-01T22:50:07.230Z,101230.40
2023-03-01T22:54:11.525Z,101232.85
2023-03-01T22:58:14.951Z,101234.33
2023-03-01T23:02:18.097Z,101229.89
2023-03-01T23:06:22.290Z,101232.20
2023-03-01T23:10:25.991Z,101230.27
2023-03-01T23:14:30.894Z,101230.31
2023-03-01T23:18:34.178Z,101232.60
2023-03-01T23:22:38.296Z,101231.54
2023-03-01T23:26:41.868Z,101227.84
2023-03-01T23:30:54.395Z,101232.63
2023-03-01T23:34:57.475Z,101239.93
2023-03-01T23:39:04.812Z,101236.00
2023-03-01T23:43:08.028Z,101240.27
2023-03-01T23:47:12.303Z,101237.11
2023-03-01T23:51:17.847Z,101231.98
2023-03-01T23:55:22.951Z,101225.52
2023-03-01T23:59:26.213Z,101228.25
